Time;durP1;ratioP1;P1;durP2;ratioP2;P2;SDS_P1;SDS_P2;PMS_P1;PMS_P2;Temp;Humidity;BMP_temperature;BMP_pressure;BME280_temperature;BME280_humidity;BME280_pressure;Samples;Min_cycle;Max_cycle;Signal;HPM_P1;HPM_P2
2021/11/11 00:01:07;;;;;;;45.10;24.10;;;;;;;3.21;83.75;96791.38;5089622;28;20789;-72
2021/11/11 00:03:34;;;;;;;55.28;23.10;;;;;;;3.17;83.84;96785.69;5088317;28;20044;-71
2021/11/11 00:06:02;;;;;;;43.83;22.83;;;;;;;3.19;83.68;96772.81;5089592;28;20127;-72
2021/11/11 00:08:28;;;;;;;44.65;23.45;;;;;;;3.14;83.40;96770.88;5088453;28;20039;-72
2021/11/11 00:10:55;;;;;;;39.33;20.85;;;;;;;3.10;83.43;96769.78;5093798;28;20502;-72
2021/11/11 00:13:21;;;;;;;34.15;21.15;;;;;;;3.08;83.41;96777.31;5108704;28;20066;-71
2021/11/11 00:15:49;;;;;;;52.97;22.75;;;;;;;3.05;83.45;96785.09;5109184;27;20047;-72
2021/11/11 00:18:17;;;;;;;42.47;21.45;;;;;;;3.01;83.36;96786.66;5109205;27;20050;-72
2021/11/11 00:20:43;;;;;;;41.50;21.42;;;;;;;2.97;83.46;96799.00;5109043;28;20051;-71
2021/11/11 00:23:12;;;;;;;47.25;20.92;;;;;;;2.94;83.36;96786.09;5108769;28;20046;-72
2021/11/11 00:25:38;;;;;;;32.95;20.77;;;;;;;2.94;83.02;96794.16;5108296;28;20054;-72
2021/11/11 00:28:06;;;;;;;39.05;20.92;;;;;;;2.90;82.88;96793.03;5109625;28;20047;-71
2021/11/11 00:30:33;;;;;;;39.42;19.65;;;;;;;2.85;83.00;96778.47;5108491;28;20135;-71
2021/11/11 00:32:59;;;;;;;45.03;22.10;;;;;;;2.83;83.02;96785.22;5108928;28;20119;-72
2021/11/11 00:35:29;;;;;;;48.30;22.30;;;;;;;2.79;82.89;96790.28;5108326;28;20043;-72
2021/11/11 00:37:57;;;;;;;40.88;21.55;;;;;;;2.77;83.25;96784.34;5109035;28;20525;-72
2021/11/11 00:40:26;;;;;;;46.03;21.90;;;;;;;2.79;82.84;96784.09;5107318;28;20514;-71
2021/11/11 00:42:53;;;;;;;47.80;21.25;;;;;;;2.76;82.78;96782.72;5087950;28;20040;-72
2021/11/11 00:45:19;;;;;;;45.83;20.90;;;;;;;2.72;82.87;96778.94;5088239;28;20046;-72
2021/11/11 00:47:48;;;;;;;42.58;20.10;;;;;;;2.65;82.63;96775.63;5087865;28;20167;-72
2021/11/11 00:50:17;;;;;;;43.72;19.33;;;;;;;2.58;82.71;96773.19;5088449;28;20055;-71
2021/11/11 00:52:43;;;;;;;53.30;20.85;;;;;;;2.53;83.15;96775.81;5087955;28;20526;-72
2021/11/11 00:55:10;;;;;;;34.80;18.23;;;;;;;2.56;82.71;96774.50;5087715;28;20048;-72
2021/11/11 00:57:39;;;;;;;30.38;16.88;;;;;;;2.55;82.56;96780.94;5088352;28;20076;-72
2021/11/11 01:00:07;;;;;;;26.15;16.90;;;;;;;2.52;82.57;96793.03;5087276;28;20079;-71
2021/11/11 01:02:34;;;;;;;34.88;18.52;;;;;;;2.51;82.61;96787.91;5087300;28;20052;-72
2021/11/11 01:05:01;;;;;;;44.20;19.67;;;;;;;2.50;83.00;96792.44;5087111;28;20054;-72
2021/11/11 01:07:27;;;;;;;30.90;18.25;;;;;;;2.51;83.01;96779.84;5088065;28;20064;-72
2021/11/11 01:09:54;;;;;;;35.35;18.63;;;;;;;2.54;82.95;96782.00;5087168;28;20100;-72
2021/11/11 01:12:20;;;;;;;40.95;18.98;;;;;;;2.53;83.24;96783.06;5104342;27;20048;-71
2021/11/11 01:14:48;;;;;;;27.40;18.15;;;;;;;2.56;83.21;96782.56;5107111;27;20541;-72
2021/11/11 01:17:14;;;;;;;29.60;18.08;;;;;;;2.59;82.95;96779.34;5108288;28;20511;-72
2021/11/11 01:19:41;;;;;;;28.52;18.48;;;;;;;2.58;82.81;96791.19;5108123;28;20048;-72
2021/11/11 01:22:08;;;;;;;28.63;16.65;;;;;;;2.60;82.94;96783.66;5107554;28;20058;-71
2021/11/11 01:24:35;;;;;;;27.70;17.90;;;;;;;2.59;82.72;96784.75;5107489;28;20672;-72
2021/11/11 01:27:02;;;;;;;26.52;17.45;;;;;;;2.63;82.44;96785.84;5107392;28;20070;-70
2021/11/11 01:29:28;;;;;;;26.30;17.40;;;;;;;2.61;82.43;96777.25;5108386;27;20043;-71
2021/11/11 01:31:56;;;;;;;27.27;18.00;;;;;;;2.63;82.39;96768.91;5107356;28;20062;-71
2021/11/11 01:34:25;;;;;;;30.20;16.95;;;;;;;2.58;81.42;96767.00;5107400;28;20043;-72
2021/11/11 01:36:51;;;;;;;23.38;16.08;;;;;;;2.51;81.51;96763.72;5107674;28;20081;-71
2021/11/11 01:39:18;;;;;;;26.55;16.95;;;;;;;2.47;82.16;96770.66;5107634;28;20105;-71
2021/11/11 01:41:45;;;;;;;27.15;17.10;;;;;;;2.40;82.28;96770.03;5094707;28;20052;-71
2021/11/11 01:44:12;;;;;;;31.67;17.55;;;;;;;2.38;82.66;96761.44;5086615;28;20048;-71
2021/11/11 01:46:39;;;;;;;27.63;18.20;;;;;;;2.35;82.62;96768.16;5087418;28;20075;-71
2021/11/11 01:49:07;;;;;;;25.98;17.90;;;;;;;2.33;82.80;96772.94;5086821;28;20056;-71
2021/11/11 01:51:34;;;;;;;31.13;16.95;;;;;;;2.32;82.85;96780.22;5087486;28;20075;-71
2021/11/11 01:54:01;;;;;;;27.58;17.00;;;;;;;2.37;82.40;96773.25;5086470;28;20754;-71
2021/11/11 01:56:27;;;;;;;28.83;16.10;;;;;;;2.30;82.25;96771.59;5087570;28;20051;-71
2021/11/11 01:58:54;;;;;;;25.10;16.05;;;;;;;2.27;82.19;96771.28;5086811;28;20048;-71
2021/11/11 02:01:20;;;;;;;23.77;15.57;;;;;;;2.16;82.24;96769.56;5087342;28;20506;-71
2021/11/11 02:03:47;;;;;;;22.08;14.88;;;;;;;2.03;82.73;96768.09;5086218;28;20078;-71
2021/11/11 02:06:15;;;;;;;30.08;14.65;;;;;;;1.93;83.53;96762.63;5086717;28;20044;-70
2021/11/11 02:08:42;;;;;;;30.25;15.45;;;;;;;1.90;83.77;96763.13;5087346;28;20696;-71
2021/11/11 02:11:08;;;;;;;27.55;16.30;;;;;;;1.88;83.91;96765.25;5093505;28;20047;-71
2021/11/11 02:13:35;;;;;;;28.45;16.88;;;;;;;1.92;84.22;96769.06;5108396;28;20323;-71
2021/11/11 02:16:01;;;;;;;34.35;17.02;;;;;;;1.91;84.46;96770.13;5113601;27;20151;-71
2021/11/11 02:18:28;;;;;;;25.33;16.30;;;;;;;1.88;84.23;96747.28;5114814;27;20047;-73
2021/11/11 02:20:56;;;;;;;26.25;15.60;;;;;;;1.90;84.05;96745.16;5113661;27;20050;-73
2021/11/11 02:23:23;;;;;;;25.20;15.85;;;;;;;1.94;83.63;96745.47;5113717;27;20093;-73
2021/11/11 02:25:50;;;;;;;24.40;15.82;;;;;;;1.92;83.23;96748.38;5114296;27;20054;-73
2021/11/11 02:28:19;;;;;;;30.67;16.90;;;;;;;1.94;83.07;96748.16;5114030;27;20406;-73
2021/11/11 02:30:50;;;;;;;25.50;15.43;;;;;;;1.90;82.93;96749.72;5113721;27;20047;-73
2021/11/11 02:33:19;;;;;;;23.25;14.63;;;;;;;1.83;83.26;96745.34;5113394;27;20650;-73
2021/11/11 02:35:46;;;;;;;26.27;15.32;;;;;;;1.78;83.67;96753.34;5113840;27;20050;-73
2021/11/11 02:38:15;;;;;;;25.08;14.93;;;;;;;1.65;83.82;96748.34;5113575;27;20055;-73
2021/11/11 02:40:42;;;;;;;25.20;14.18;;;;;;;1.51;84.35;96742.59;5111049;27;20052;-73
2021/11/11 02:43:10;;;;;;;36.97;15.30;;;;;;;1.45;84.83;96742.75;5092434;27;20055;-73
2021/11/11 02:45:38;;;;;;;27.30;16.15;;;;;;;1.41;84.97;96744.31;5094161;28;20054;-73
2021/11/11 02:48:06;;;;;;;40.13;17.35;;;;;;;1.39;84.71;96744.56;5092494;28;20070;-73
2021/11/11 02:50:34;;;;;;;29.23;15.90;;;;;;;1.41;85.05;96737.09;5094176;28;20051;-73
2021/11/11 02:53:01;;;;;;;30.33;16.73;;;;;;;1.45;84.92;96732.81;5092677;28;20087;-73
2021/11/11 02:55:30;;;;;;;42.70;16.70;;;;;;;1.49;84.42;96733.16;5093125;28;20569;-73
2021/11/11 02:57:59;;;;;;;24.85;16.02;;;;;;;1.49;84.52;96739.31;5093501;28;20051;-73
2021/11/11 03:00:28;;;;;;;28.67;17.02;;;;;;;1.51;84.15;96742.59;5092690;27;20059;-73
2021/11/11 03:02:55;;;;;;;26.50;14.90;;;;;;;1.58;84.20;96747.75;5093178;28;20055;-73
2021/11/11 03:05:23;;;;;;;23.10;14.02;;;;;;;1.56;83.94;96741.81;5092439;27;20098;-73
2021/11/11 03:07:50;;;;;;;33.38;14.55;;;;;;;1.55;83.64;96748.25;5093767;27;20048;-73
2021/11/11 03:10:20;;;;;;;46.45;15.85;;;;;;;1.45;83.56;96756.16;5092423;28;20044;-73
2021/11/11 03:12:48;;;;;;;34.05;15.95;;;;;;;1.50;84.00;96756.22;5073007;28;20045;-73
2021/11/11 03:15:15;;;;;;;26.15;14.80;;;;;;;1.51;84.22;96764.06;5072054;28;20041;-73
2021/11/11 03:17:42;;;;;;;41.58;15.75;;;;;;;1.57;84.24;96751.50;5073111;28;20514;-73
2021/11/11 03:20:11;;;;;;;29.30;14.38;;;;;;;1.62;84.48;96754.25;5072668;28;20130;-72
2021/11/11 03:22:40;;;;;;;25.77;15.15;;;;;;;1.62;84.21;96753.41;5072343;28;20059;-73
2021/11/11 03:25:07;;;;;;;45.42;15.20;;;;;;;1.68;84.22;96755.91;5070943;28;20674;-73
2021/11/11 03:27:34;;;;;;;40.72;15.45;;;;;;;1.74;84.20;96746.84;5069971;28;20064;-73
2021/11/11 03:30:03;;;;;;;27.20;14.80;;;;;;;1.77;84.34;96754.38;5070323;28;20056;-73
2021/11/11 03:32:29;;;;;;;39.92;14.45;;;;;;;1.81;84.20;96752.81;5068426;28;20052;-73
2021/11/11 03:34:56;;;;;;;30.08;14.70;;;;;;;1.82;84.01;96754.44;5069522;28;20052;-73
2021/11/11 03:37:22;;;;;;;34.40;15.32;;;;;;;1.89;84.35;96758.84;5069127;28;20056;-73
2021/11/11 03:39:49;;;;;;;39.67;14.95;;;;;;;1.86;83.52;96753.94;5069710;28;20075;-73
2021/11/11 03:42:16;;;;;;;50.53;13.20;;;;;;;1.81;83.56;96752.81;5101976;28;20051;-73
2021/11/11 03:44:45;;;;;;;28.65;12.77;;;;;;;1.76;83.98;96750.09;5095654;28;20098;-73
2021/11/11 03:47:13;;;;;;;32.85;14.57;;;;;;;1.76;84.57;96758.16;5089474;28;20075;-73
2021/11/11 03:49:39;;;;;;;29.10;13.45;;;;;;;1.72;84.57;96759.72;5089126;28;20445;-73
2021/11/11 03:52:07;;;;;;;25.40;13.23;;;;;;;1.67;84.97;96765.03;5089439;28;20048;-73
2021/11/11 03:54:34;;;;;;;28.33;13.13;;;;;;;1.65;85.13;96775.19;5088763;28;20052;-73
2021/11/11 03:57:01;;;;;;;25.73;12.18;;;;;;;1.60;85.01;96780.50;5090127;28;20058;-73
2021/11/11 03:59:29;;;;;;;25.15;12.68;;;;;;;1.58;85.77;96781.84;5088834;28;20048;-73
2021/11/11 04:01:56;;;;;;;45.72;13.20;;;;;;;1.55;85.88;96781.25;5089400;28;20044;-73
2021/11/11 04:04:24;;;;;;;34.22;13.98;;;;;;;1.53;86.09;96778.03;5088135;28;20063;-72
2021/11/11 04:06:50;;;;;;;53.22;13.85;;;;;;;1.52;86.22;96787.13;5088822;28;20059;-73
2021/11/11 04:09:17;;;;;;;43.28;14.10;;;;;;;1.53;86.25;96782.59;5088919;28;20048;-73
2021/11/11 04:11:44;;;;;;;37.20;14.20;;;;;;;1.52;86.91;96786.34;5088761;28;20059;-73
2021/11/11 04:14:10;;;;;;;23.58;13.45;;;;;;;1.56;87.31;96787.44;5089082;28;20048;-73
2021/11/11 04:16:39;;;;;;;45.88;14.02;;;;;;;1.63;87.10;96780.03;5088392;28;20052;-73
2021/11/11 04:19:05;;;;;;;45.63;14.27;;;;;;;1.66;86.98;96787.56;5089338;28;20059;-73
2021/11/11 04:21:33;;;;;;;62.78;14.38;;;;;;;1.71;86.93;96782.25;5088469;28;20075;-73
2021/11/11 04:24:00;;;;;;;38.13;13.27;;;;;;;1.69;87.05;96779.00;5088567;28;20574;-73
2021/11/11 04:26:28;;;;;;;53.65;14.48;;;;;;;1.69;87.14;96775.53;5088259;28;20048;-73
2021/11/11 04:28:58;;;;;;;52.00;13.80;;;;;;;1.66;87.30;96774.13;5088845;28;20047;-73
2021/11/11 04:31:27;;;;;;;92.38;15.10;;;;;;;1.64;87.20;96773.59;5088624;28;20068;-73
2021/11/11 04:33:59;;;;;;;49.13;14.30;;;;;;;1.61;87.58;96768.69;5087764;28;20125;-73
2021/11/11 04:36:46;;;;;;;35.45;13.80;;;;;;;1.72;88.06;96775.84;5088678;28;20062;-73
2021/11/11 04:39:32;;;;;;;35.22;14.20;;;;;;;1.71;87.70;96779.56;5087332;28;20549;-73
2021/11/11 04:42:22;;;;;;;42.05;13.10;;;;;;;1.81;87.84;96786.94;5089151;28;20051;-73
2021/11/11 04:45:00;;;;;;;37.38;13.80;;;;;;;1.86;88.01;96791.53;5088402;28;20056;-73
2021/11/11 04:47:35;;;;;;;60.33;14.45;;;;;;;1.86;87.25;96796.91;5087934;28;20062;-73
2021/11/11 04:52:53;;;;;;;47.28;14.15;;;;;;;1.77;87.11;96791.97;5087703;28;20552;-73
2021/11/11 05:01:12;;;;;;;26.50;12.30;;;;;;;1.69;86.93;96819.28;5087340;28;20056;-73
2021/11/11 05:03:39;;;;;;;27.85;11.43;;;;;;;1.68;86.57;96806.94;5088031;28;20059;-73
2021/11/11 05:06:06;;;;;;;23.13;11.30;;;;;;;1.75;87.19;96801.34;5087159;28;20105;-73
2021/11/11 05:08:33;;;;;;;20.60;12.32;;;;;;;1.82;87.13;96799.28;5088542;28;20554;-73
2021/11/11 05:11:01;;;;;;;19.67;11.90;;;;;;;1.89;86.71;96801.81;5088117;28;20048;-70
2021/11/11 05:13:28;;;;;;;27.17;10.73;;;;;;;1.89;86.10;96791.06;5087257;28;20063;-73
2021/11/11 05:15:54;;;;;;;18.08;11.02;;;;;;;1.82;85.74;96792.03;5087686;28;20103;-73
2021/11/11 05:18:21;;;;;;;19.25;11.23;;;;;;;1.83;86.01;96799.06;5087046;28;20051;-73
2021/11/11 05:20:48;;;;;;;20.70;11.80;;;;;;;1.82;85.57;96789.34;5088746;28;20044;-73
2021/11/11 05:23:15;;;;;;;20.08;11.05;;;;;;;1.76;85.45;96784.19;5086048;28;20407;-73
2021/11/11 05:25:41;;;;;;;17.42;11.02;;;;;;;1.72;85.58;96789.25;5088302;28;20055;-73
2021/11/11 05:28:09;;;;;;;36.40;12.60;;;;;;;1.72;85.78;96796.47;5086711;28;20407;-73
2021/11/11 05:30:36;;;;;;;35.38;12.40;;;;;;;1.80;86.69;96794.19;5088246;28;20056;-73
2021/11/11 05:33:02;;;;;;;21.83;12.48;;;;;;;1.80;86.65;96798.75;5086838;28;20059;-72
2021/11/11 05:35:29;;;;;;;25.00;12.45;;;;;;;1.86;86.80;96791.53;5087153;28;20051;-73
2021/11/11 05:37:56;;;;;;;27.00;11.40;;;;;;;1.83;86.11;96798.25;5087304;28;20051;-73
2021/11/11 05:40:23;;;;;;;23.15;12.13;;;;;;;1.77;85.76;96794.66;5086792;28;20048;-73
2021/11/11 05:42:51;;;;;;;29.27;12.00;;;;;;;1.75;85.95;96788.75;5087573;28;20052;-73
2021/11/11 05:45:20;;;;;;;24.48;13.90;;;;;;;1.76;86.29;96794.94;5086406;28;20060;-73
2021/11/11 05:47:47;;;;;;;50.65;14.40;;;;;;;1.81;86.65;96795.78;5088210;28;20056;-73
2021/11/11 05:50:16;;;;;;;33.15;15.63;;;;;;;1.88;86.53;96806.38;5085974;28;20052;-73
2021/11/11 05:52:43;;;;;;;22.85;13.13;;;;;;;1.89;86.65;96823.28;5087501;28;20059;-74
2021/11/11 05:55:10;;;;;;;32.30;14.48;;;;;;;1.92;86.57;96823.56;5086165;28;20411;-73
2021/11/11 05:57:37;;;;;;;45.20;14.27;;;;;;;1.94;86.06;96828.72;5087666;28;20059;-73
2021/11/11 06:00:07;;;;;;;34.70;14.13;;;;;;;1.93;85.80;96819.84;5086798;28;20052;-72
2021/11/11 06:02:35;;;;;;;48.22;11.88;;;;;;;1.83;85.47;96831.28;5086645;28;20551;-73
2021/11/11 06:05:02;;;;;;;38.00;12.10;;;;;;;1.75;85.44;96834.38;5086654;28;20052;-73
2021/11/11 06:07:28;;;;;;;40.67;11.88;;;;;;;1.63;85.54;96831.03;5086411;28;20079;-73
2021/11/11 06:09:55;;;;;;;40.08;13.18;;;;;;;1.53;85.79;96825.53;5087549;28;20052;-73
2021/11/11 06:12:21;;;;;;;32.05;13.50;;;;;;;1.44;86.46;96827.00;5085800;28;22139;-73
2021/11/11 06:14:48;;;;;;;33.63;13.32;;;;;;;1.37;86.90;96837.13;5087504;28;20055;-73
2021/11/11 06:17:14;;;;;;;35.58;13.27;;;;;;;1.39;87.64;96845.72;5086080;28;20051;-73
2021/11/11 06:19:44;;;;;;;37.55;13.55;;;;;;;1.35;87.73;96844.59;5087338;28;20048;-73
2021/11/11 06:22:11;;;;;;;36.40;12.20;;;;;;;1.28;87.95;96861.69;5086043;28;20052;-72
2021/11/11 06:24:37;;;;;;;56.72;14.85;;;;;;;1.20;88.20;96854.06;5085285;28;20044;-72
2021/11/11 06:27:04;;;;;;;31.52;14.20;;;;;;;1.23;88.68;96864.28;5086785;28;20055;-72
2021/11/11 06:29:31;;;;;;;42.80;14.38;;;;;;;1.22;88.73;96867.22;5086505;28;20056;-73
2021/11/11 06:31:58;;;;;;;34.22;15.00;;;;;;;1.26;89.26;96863.00;5087368;28;20498;-73
2021/11/11 06:34:24;;;;;;;32.88;14.63;;;;;;;1.35;89.47;96858.00;5085493;28;20513;-73
2021/11/11 06:36:52;;;;;;;51.42;14.43;;;;;;;1.44;89.14;96859.22;5087842;28;20048;-73
2021/11/11 06:39:18;;;;;;;40.75;13.23;;;;;;;1.39;88.54;96845.72;5086067;28;20052;-73
2021/11/11 06:41:45;;;;;;;40.22;13.45;;;;;;;1.30;88.41;96859.56;5087170;28;20048;-73
2021/11/11 06:44:18;;;;;;;42.97;12.52;;;;;;;1.24;88.21;96855.16;5085267;28;20048;-73
2021/11/11 06:46:45;;;;;;;;;;;;;;;1.29;88.81;96849.88;5086851;28;20060;-72
2021/11/11 06:49:12;;;;;;;45.72;12.70;;;;;;;1.28;88.74;96856.31;5086349;28;19924;-70
2021/11/11 06:51:39;;;;;;;40.15;12.48;;;;;;;1.30;88.76;96842.63;5086110;28;20632;-73
2021/11/11 06:54:08;;;;;;;31.67;11.50;;;;;;;1.37;88.59;96842.50;5086111;28;20052;-72
2021/11/11 06:56:35;;;;;;;39.05;11.55;;;;;;;1.38;88.39;96860.19;5086136;28;20411;-73
2021/11/11 06:59:01;;;;;;;42.72;12.95;;;;;;;1.43;88.77;96854.91;5087174;28;20051;-73
2021/11/11 07:01:28;;;;;;;19.92;12.65;;;;;;;1.47;88.79;96853.38;5087993;28;20066;-73
2021/11/11 07:03:54;;;;;;;34.42;12.40;;;;;;;1.56;88.90;96851.84;5090173;28;20048;-73
2021/11/11 07:06:21;;;;;;;63.13;15.20;;;;;;;1.66;89.18;96851.19;5089552;28;20048;-73
2021/11/11 07:08:47;;;;;;;37.30;14.38;;;;;;;1.70;88.87;96847.75;5090464;28;20052;-73
2021/11/11 07:11:15;;;;;;;63.55;14.52;;;;;;;1.77;88.88;96853.72;5089821;28;20055;-73
2021/11/11 07:13:41;;;;;;;43.17;14.10;;;;;;;1.84;88.92;96864.31;5089948;28;20053;-73
2021/11/11 07:16:08;;;;;;;27.23;13.25;;;;;;;1.90;88.67;96859.81;5090431;28;20044;-73
2021/11/11 07:18:35;;;;;;;44.85;14.15;;;;;;;1.96;88.37;96869.56;5089473;28;20498;-73
2021/11/11 07:21:01;;;;;;;51.80;13.57;;;;;;;1.94;87.54;96885.13;5090508;28;20044;-72
2021/11/11 07:23:28;;;;;;;48.75;14.15;;;;;;;1.90;87.51;96889.34;5089117;28;20044;-73
2021/11/11 07:25:55;;;;;;;49.20;14.57;;;;;;;1.90;87.55;96892.84;5090647;28;20044;-73
2021/11/11 07:28:23;;;;;;;28.50;13.50;;;;;;;1.89;87.55;96893.09;5089342;28;20059;-73
2021/11/11 07:30:50;;;;;;;48.22;13.13;;;;;;;1.90;87.73;96889.34;5090450;28;20051;-73
2021/11/11 07:33:17;;;;;;;37.35;14.40;;;;;;;1.85;87.49;96889.28;5089606;28;20040;-73
2021/11/11 07:35:44;;;;;;;37.90;13.43;;;;;;;1.80;86.51;96893.53;5089403;28;20056;-73
2021/11/11 07:38:11;;;;;;;44.88;14.38;;;;;;;1.76;86.58;96900.44;5089567;28;20058;-73
2021/11/11 07:40:38;;;;;;;38.00;14.18;;;;;;;1.77;86.89;96904.75;5089251;28;20526;-73
2021/11/11 07:43:05;;;;;;;35.40;13.50;;;;;;;1.66;86.79;96905.69;5089473;28;20044;-72
2021/11/11 07:45:33;;;;;;;57.17;14.13;;;;;;;1.66;87.09;96903.00;5101939;28;20055;-72
2021/11/11 07:48:01;;;;;;;46.40;14.52;;;;;;;1.70;87.50;96904.13;5110607;28;20070;-73
2021/11/11 07:50:29;;;;;;;45.17;15.65;;;;;;;1.82;87.84;96902.13;5109397;27;20051;-73
2021/11/11 07:52:57;;;;;;;53.53;15.70;;;;;;;1.83;87.04;96900.28;5109613;28;20052;-73
2021/11/11 07:55:24;;;;;;;35.85;15.35;;;;;;;1.89;87.40;96901.16;5109084;28;20070;-73
2021/11/11 07:57:52;;;;;;;51.00;15.73;;;;;;;1.94;87.42;96902.03;5109480;28;20112;-73
2021/11/11 08:00:19;;;;;;;55.38;15.63;;;;;;;2.00;87.77;96894.84;5109841;28;20052;-73
2021/11/11 08:02:47;;;;;;;31.60;15.32;;;;;;;2.13;88.07;96893.66;5109186;27;20116;-71
2021/11/11 08:05:16;;;;;;;79.78;15.90;;;;;;;2.19;88.01;96893.44;5109542;28;20515;-71
2021/11/11 08:07:44;;;;;;;80.60;16.20;;;;;;;2.19;87.44;96896.13;5108915;28;20054;-71
2021/11/11 08:10:10;;;;;;;55.03;14.35;;;;;;;2.19;87.11;96896.13;5109714;27;20051;-71
2021/11/11 08:12:37;;;;;;;84.70;15.70;;;;;;;2.14;86.74;96906.03;5108502;28;20445;-71
2021/11/11 08:15:04;;;;;;;78.80;14.80;;;;;;;2.02;87.01;96904.28;5107656;28;20047;-70
2021/11/11 08:17:30;;;;;;;36.60;14.10;;;;;;;2.00;87.50;96910.97;5109098;27;20131;-71
2021/11/11 08:19:58;;;;;;;60.65;14.40;;;;;;;2.05;88.23;96908.34;5109399;27;20690;-71
2021/11/11 08:22:26;;;;;;;42.70;15.65;;;;;;;2.16;88.57;96910.09;5108622;27;20059;-71
2021/11/11 08:24:54;;;;;;;50.75;16.35;;;;;;;2.23;89.03;96902.66;5109138;27;20058;-71
2021/11/11 08:27:22;;;;;;;36.33;16.55;;;;;;;2.30;88.73;96894.41;5109380;28;20067;-71
2021/11/11 08:29:49;;;;;;;38.33;15.70;;;;;;;2.37;88.52;96899.59;5108977;27;20047;-71
2021/11/11 08:32:16;;;;;;;37.15;14.77;;;;;;;2.39;88.22;96892.06;5109194;28;20052;-71
2021/11/11 08:34:44;;;;;;;65.78;14.45;;;;;;;2.37;87.17;96899.59;5108564;27;20509;-71
2021/11/11 08:37:12;;;;;;;27.88;14.75;;;;;;;2.51;87.78;96901.63;5108713;28;20102;-73
2021/11/11 08:39:40;;;;;;;48.17;15.23;;;;;;;2.70;87.96;96904.75;5109218;27;20406;-71
2021/11/11 08:42:08;;;;;;;29.63;14.20;;;;;;;2.84;87.99;96891.72;5108570;28;20048;-71
2021/11/11 08:44:35;;;;;;;55.72;14.70;;;;;;;2.98;87.60;96894.81;5100862;28;20043;-71
2021/11/11 08:47:03;;;;;;;32.05;15.38;;;;;;;3.08;87.28;96893.00;5088096;28;20059;-70
2021/11/11 08:49:29;;;;;;;33.90;14.85;;;;;;;3.22;87.65;96896.06;5089197;28;20558;-71
2021/11/11 08:51:56;;;;;;;30.25;15.35;;;;;;;3.36;87.35;96899.13;5087938;28;20056;-71
2021/11/11 08:54:24;;;;;;;28.52;14.98;;;;;;;3.47;86.85;96902.72;5088446;28;20047;-71
2021/11/11 08:56:51;;;;;;;33.72;14.90;;;;;;;3.55;86.49;96899.50;5088309;28;20519;-71
2021/11/11 08:59:19;;;;;;;45.75;16.75;;;;;;;3.63;86.19;96896.34;5088394;28;20051;-71
2021/11/11 09:01:46;;;;;;;48.35;18.45;;;;;;;3.69;85.95;96895.31;5088190;28;20101;-71
2021/11/11 09:04:13;;;;;;;86.93;22.98;;;;;;;3.69;85.43;96898.00;5087546;28;20055;-71
2021/11/11 09:06:40;;;;;;;101.95;23.15;;;;;;;3.72;85.82;96889.41;5087810;28;20068;-71
2021/11/11 09:09:07;;;;;;;48.45;19.77;;;;;;;3.79;85.58;96884.59;5087483;28;20048;-71
2021/11/11 09:11:36;;;;;;;68.07;17.98;;;;;;;3.83;85.54;96879.50;5088640;28;20044;-71
2021/11/11 09:14:03;;;;;;;33.72;15.50;;;;;;;3.95;85.53;96881.97;5086015;28;20055;-71
2021/11/11 09:16:30;;;;;;;37.63;16.17;;;;;;;3.98;84.51;96886.84;5088535;28;20566;-71
2021/11/11 09:18:56;;;;;;;88.93;16.85;;;;;;;3.91;82.88;96887.91;5087622;28;20064;-72
2021/11/11 09:21:23;;;;;;;56.00;18.17;;;;;;;3.99;83.38;96883.06;5087957;28;20058;-71
2021/11/11 09:23:50;;;;;;;55.88;18.08;;;;;;;4.07;84.01;96882.56;5086644;28;20131;-72
2021/11/11 09:26:17;;;;;;;45.05;17.02;;;;;;;4.14;83.73;96892.03;5087794;28;20048;-72
2021/11/11 09:28:46;;;;;;;48.40;16.13;;;;;;;4.21;82.89;96886.38;5087991;28;20058;-72
2021/11/11 09:31:13;;;;;;;39.55;15.73;;;;;;;4.17;82.69;96885.28;5087341;28;20044;-71
2021/11/11 09:33:41;;;;;;;59.50;21.02;;;;;;;4.14;82.92;96893.91;5087517;28;20052;-72
2021/11/11 09:36:07;;;;;;;62.17;22.63;;;;;;;4.04;83.09;96888.47;5087731;28;20044;-71
2021/11/11 09:38:34;;;;;;;63.67;21.83;;;;;;;4.07;83.99;96883.38;5088555;28;20507;-72
2021/11/11 09:41:01;;;;;;;72.05;24.17;;;;;;;4.12;84.22;96890.66;5087127;28;20055;-72
2021/11/11 09:43:27;;;;;;;55.58;23.35;;;;;;;4.28;84.26;96886.13;5087463;28;20079;-72
2021/11/11 09:45:55;;;;;;;72.85;25.33;;;;;;;4.35;84.38;96887.53;5087030;28;20052;-72
2021/11/11 09:48:22;;;;;;;64.72;24.00;;;;;;;4.47;84.72;96889.97;5087294;28;20048;-72
2021/11/11 09:50:49;;;;;;;59.65;23.42;;;;;;;4.59;84.33;96893.22;5087579;28;20060;-71
2021/11/11 09:53:21;;;;;;;46.83;20.48;;;;;;;4.63;82.87;96896.22;5086587;28;20681;-71
2021/11/11 09:58:38;;;;;;;51.20;17.23;;;;;;;4.61;82.21;96893.00;5086810;28;20058;-71
2021/11/11 10:01:08;;;;;;;43.20;17.60;;;;;;;4.57;82.09;96889.19;5087728;28;20515;-71
2021/11/11 10:03:41;;;;;;;45.40;17.73;;;;;;;4.55;81.86;96886.78;5086653;28;20089;-72
2021/11/11 10:06:07;;;;;;;46.53;18.48;;;;;;;4.62;82.35;96887.31;5087335;28;20153;-71
2021/11/11 10:08:36;;;;;;;43.42;18.35;;;;;;;4.64;82.92;96884.34;5087222;28;20415;-72
2021/11/11 10:11:05;;;;;;;42.35;19.98;;;;;;;4.72;82.92;96886.53;5086558;28;20525;-71
2021/11/11 10:13:33;;;;;;;45.05;20.40;;;;;;;4.84;82.78;96884.38;5087562;28;20059;-72
2021/11/11 10:16:11;;;;;;;43.35;20.25;;;;;;;4.83;82.23;96880.06;5086540;28;20525;-71
2021/11/11 10:18:45;;;;;;;46.60;21.25;;;;;;;4.75;82.49;96875.22;5087883;28;20055;-71
2021/11/11 10:21:37;;;;;;;39.40;19.73;;;;;;;4.85;83.31;96869.00;5086292;28;20051;-71
2021/11/11 10:24:29;;;;;;;38.35;19.52;;;;;;;4.98;83.88;96869.28;5086936;28;20048;-71
2021/11/11 10:26:59;;;;;;;35.80;19.92;;;;;;;5.15;83.69;96870.91;5087883;28;20056;-71
2021/11/11 10:29:33;;;;;;;31.30;19.05;;;;;;;5.22;83.41;96871.47;5086201;28;20134;-71
2021/11/11 10:32:08;;;;;;;33.25;18.85;;;;;;;5.41;83.54;96871.69;5087563;28;20048;-71
2021/11/11 10:34:43;;;;;;;33.00;18.20;;;;;;;5.52;82.94;96867.91;5087326;28;20040;-71
2021/11/11 10:37:10;;;;;;;31.48;18.30;;;;;;;5.63;82.60;96864.09;5091288;28;20495;-71
2021/11/11 10:39:41;;;;;;;28.90;18.33;;;;;;;5.73;81.95;96865.97;5091031;28;20054;-71
2021/11/11 10:42:16;;;;;;;31.38;18.13;;;;;;;5.76;81.52;96868.13;5090873;28;20048;-71
2021/11/11 10:44:43;;;;;;;31.67;18.00;;;;;;;5.75;81.08;96861.09;5091272;28;20044;-71
2021/11/11 10:47:12;;;;;;;29.70;19.00;;;;;;;5.81;80.33;96870.81;5090452;28;20705;-71
2021/11/11 10:49:41;;;;;;;34.05;19.80;;;;;;;5.85;79.99;96861.09;5092078;28;20083;-71
2021/11/11 10:52:42;;;;;;;32.42;20.00;;;;;;;5.91;80.27;96860.00;5090657;28;20047;-71
2021/11/11 10:55:18;;;;;;;28.92;18.85;;;;;;;5.98;79.58;96875.94;5085504;28;20052;-71
2021/11/11 10:57:49;;;;;;;33.70;19.38;;;;;;;6.03;79.23;96872.41;5091074;28;20052;-71
2021/11/11 11:00:19;;;;;;;36.38;19.77;;;;;;;6.03;79.29;96872.41;5090395;28;20582;-71
2021/11/11 11:02:57;;;;;;;31.70;18.80;;;;;;;6.10;78.99;96872.91;5091332;28;20059;-71
2021/11/11 11:05:26;;;;;;;31.55;18.02;;;;;;;6.24;78.39;96872.03;5090120;28;20122;-71
2021/11/11 11:08:04;;;;;;;27.17;18.63;;;;;;;6.30;77.60;96872.81;5091311;28;20048;-71
2021/11/11 11:10:32;;;;;;;31.35;18.70;;;;;;;6.37;78.22;96867.94;5090013;28;20568;-71
2021/11/11 11:13:04;;;;;;;26.75;18.35;;;;;;;6.39;77.83;96871.16;5090645;28;20051;-71
2021/11/11 11:15:38;;;;;;;28.92;18.50;;;;;;;6.48;78.51;96874.09;5089920;28;20047;-71
2021/11/11 11:18:06;;;;;;;31.05;19.27;;;;;;;6.63;79.50;96860.50;5090076;28;20048;-71
2021/11/11 11:20:34;;;;;;;27.83;18.90;;;;;;;6.72;78.44;96856.06;5090657;28;20048;-72
2021/11/11 11:23:17;;;;;;;27.10;18.23;;;;;;;6.89;79.40;96855.72;5089837;28;20044;-71
2021/11/11 11:25:53;;;;;;;25.83;17.05;;;;;;;6.94;77.04;96850.25;5090730;28;20051;-71
2021/11/11 11:28:27;;;;;;;29.55;18.40;;;;;;;6.95;77.01;96851.06;5089562;28;20084;-71
2021/11/11 11:30:56;;;;;;;23.90;16.65;;;;;;;6.92;76.87;96855.13;5090603;28;20150;-71
2021/11/11 11:33:33;;;;;;;24.85;17.50;;;;;;;6.97;77.02;96863.22;5089305;28;20055;-71
2021/11/11 11:36:00;;;;;;;23.58;16.30;;;;;;;6.93;77.38;96854.03;5090028;28;20139;-71
2021/11/11 11:38:28;;;;;;;25.13;16.23;;;;;;;6.85;77.19;96859.25;5090397;28;20055;-71
2021/11/11 11:40:56;;;;;;;23.70;16.83;;;;;;;6.84;77.66;96852.22;5089919;28;20040;-71